sensor_id;sensor_type;location;lat;lon;timestamp;pressure;altitude;pressure_sealevel;temperature;humidity
58979;BME280;44763;50.464;30.612;2022-08-01T00:00:04;99880.73;;;20.03;63.70
58979;BME280;44763;50.464;30.612;2022-08-01T00:02:33;99869.91;;;20.01;63.76
58979;BME280;44763;50.464;30.612;2022-08-01T00:04:59;99876.08;;;19.94;63.94
58979;BME280;44763;50.464;30.612;2022-08-01T00:07:25;99883.65;;;19.92;64.09
58979;BME280;44763;50.464;30.612;2022-08-01T00:09:51;99878.49;;;19.90;64.10
58979;BME280;44763;50.464;30.612;2022-08-01T00:12:18;99875.75;;;19.85;64.32
58979;BME280;44763;50.464;30.612;2022-08-01T00:14:45;99873.05;;;19.82;64.38
58979;BME280;44763;50.464;30.612;2022-08-01T00:17:11;99872.78;;;19.84;64.52
58979;BME280;44763;50.464;30.612;2022-08-01T00:19:39;99871.14;;;19.83;64.70
58979;BME280;44763;50.464;30.612;2022-08-01T00:22:05;99873.55;;;19.77;64.84
58979;BME280;44763;50.464;30.612;2022-08-01T00:24:31;99875.62;;;19.67;65.54
58979;BME280;44763;50.464;30.612;2022-08-01T00:26:57;99818.59;;;19.31;65.56
58979;BME280;44763;50.464;30.612;2022-08-01T00:29:23;99872.61;;;19.61;65.69
58979;BME280;44763;50.464;30.612;2022-08-01T00:31:49;99878.53;;;19.60;65.68
58979;BME280;44763;50.464;30.612;2022-08-01T00:34:16;99873.66;;;19.57;66.08
58979;BME280;44763;50.464;30.612;2022-08-01T00:36:42;99875.23;;;19.53;65.94
58979;BME280;44763;50.464;30.612;2022-08-01T00:39:08;99863.36;;;19.54;65.95
58979;BME280;44763;50.464;30.612;2022-08-01T00:41:34;99872.02;;;19.56;65.85
58979;BME280;44763;50.464;30.612;2022-08-01T00:44:04;99868.47;;;19.53;65.83
58979;BME280;44763;50.464;30.612;2022-08-01T00:46:32;99863.65;;;19.55;65.81
58979;BME280;44763;50.464;30.612;2022-08-01T00:48:59;99856.59;;;19.52;65.78
58979;BME280;44763;50.464;30.612;2022-08-01T00:51:28;99858.75;;;19.55;65.79
58979;BME280;44763;50.464;30.612;2022-08-01T00:53:54;99861.76;;;19.58;65.74
58979;BME280;44763;50.464;30.612;2022-08-01T00:56:22;99857.45;;;19.60;65.63
58979;BME280;44763;50.464;30.612;2022-08-01T00:58:50;99853.14;;;19.61;65.57
58979;BME280;44763;50.464;30.612;2022-08-01T01:01:17;99855.30;;;19.62;65.54
58979;BME280;44763;50.464;30.612;2022-08-01T01:03:50;99854.23;;;19.63;65.52
58979;BME280;44763;50.464;30.612;2022-08-01T01:06:34;99857.20;;;19.64;65.60
58979;BME280;44763;50.464;30.612;2022-08-01T01:12:27;99864.66;;;19.49;66.42
58979;BME280;44763;50.464;30.612;2022-08-01T01:15:26;99860.50;;;19.36;66.74
58979;BME280;44763;50.464;30.612;2022-08-01T01:18:07;99802.61;;;18.92;67.30
58979;BME280;44763;50.464;30.612;2022-08-01T01:20:43;99857.96;;;19.19;67.75
58979;BME280;44763;50.464;30.612;2022-08-01T01:31:40;99858.76;;;18.90;68.74
58979;BME280;44763;50.464;30.612;2022-08-01T01:34:05;99855.80;;;18.92;68.73
58979;BME280;44763;50.464;30.612;2022-08-01T01:36:35;99862.02;;;18.92;68.73
58979;BME280;44763;50.464;30.612;2022-08-01T01:39:06;99872.01;;;18.92;68.79
58979;BME280;44763;50.464;30.612;2022-08-01T01:41:35;99868.20;;;18.90;68.81
58979;BME280;44763;50.464;30.612;2022-08-01T01:44:04;99866.56;;;18.89;69.06
58979;BME280;44763;50.464;30.612;2022-08-01T01:46:31;99872.20;;;18.85;69.16
58979;BME280;44763;50.464;30.612;2022-08-01T01:49:00;99870.29;;;18.83;69.37
58979;BME280;44763;50.464;30.612;2022-08-01T01:51:28;99862.09;;;18.78;69.61
58979;BME280;44763;50.464;30.612;2022-08-01T01:53:56;99871.27;;;18.74;69.59
58979;BME280;44763;50.464;30.612;2022-08-01T01:56:24;99878.52;;;18.71;69.81
58979;BME280;44763;50.464;30.612;2022-08-01T01:58:55;99876.31;;;18.68;69.85
58979;BME280;44763;50.464;30.612;2022-08-01T02:01:25;99879.48;;;18.62;70.04
58979;BME280;44763;50.464;30.612;2022-08-01T02:03:56;99879.17;;;18.59;70.12
58979;BME280;44763;50.464;30.612;2022-08-01T02:06:23;99875.64;;;18.56;70.27
58979;BME280;44763;50.464;30.612;2022-08-01T02:08:53;99877.24;;;18.54;70.28
58979;BME280;44763;50.464;30.612;2022-08-01T02:11:20;99874.25;;;18.53;70.38
58979;BME280;44763;50.464;30.612;2022-08-01T02:13:55;99877.22;;;18.52;70.46
58979;BME280;44763;50.464;30.612;2022-08-01T02:16:20;99877.98;;;18.49;70.53
58979;BME280;44763;50.464;30.612;2022-08-01T02:18:48;99884.46;;;18.48;70.56
58979;BME280;44763;50.464;30.612;2022-08-01T02:21:18;99875.56;;;18.48;70.54
58979;BME280;44763;50.464;30.612;2022-08-01T02:23:47;99872.32;;;18.48;70.54
58979;BME280;44763;50.464;30.612;2022-08-01T02:26:15;99869.08;;;18.49;70.44
58979;BME280;44763;50.464;30.612;2022-08-01T02:28:57;99870.16;;;18.48;70.49
58979;BME280;44763;50.464;30.612;2022-08-01T02:31:22;99865.57;;;18.48;70.33
58979;BME280;44763;50.464;30.612;2022-08-01T02:33:53;99870.42;;;18.49;70.27
58979;BME280;44763;50.464;30.612;2022-08-01T02:36:23;99869.88;;;18.49;70.11
58979;BME280;44763;50.464;30.612;2022-08-01T02:38:54;99862.38;;;18.52;69.86
58979;BME280;44763;50.464;30.612;2022-08-01T02:41:24;99863.75;;;18.54;69.77
58979;BME280;44763;50.464;30.612;2022-08-01T02:43:53;99865.95;;;18.57;69.67
58979;BME280;44763;50.464;30.612;2022-08-01T02:46:36;99864.89;;;18.61;69.20
58979;BME280;44763;50.464;30.612;2022-08-01T02:49:06;99860.91;;;18.66;68.84
58979;BME280;44763;50.464;30.612;2022-08-01T02:51:34;99855.32;;;18.73;68.58
58979;BME280;44763;50.464;30.612;2022-08-01T02:54:02;99858.59;;;18.77;68.16
58979;BME280;44763;50.464;30.612;2022-08-01T02:56:31;99860.84;;;18.83;67.86
58979;BME280;44763;50.464;30.612;2022-08-01T02:59:12;99859.80;;;18.86;67.62
58979;BME280;44763;50.464;30.612;2022-08-01T03:01:36;99858.51;;;18.92;67.30
58979;BME280;44763;50.464;30.612;2022-08-01T03:04:04;99862.32;;;18.96;67.10
58979;BME280;44763;50.464;30.612;2022-08-01T03:06:32;99864.00;;;19.02;66.83
58979;BME280;44763;50.464;30.612;2022-08-01T03:09:03;99856.80;;;19.10;66.32
58979;BME280;44763;50.464;30.612;2022-08-01T03:11:32;99861.52;;;19.25;65.82
58979;BME280;44763;50.464;30.612;2022-08-01T03:14:01;99861.09;;;19.41;65.28
58979;BME280;44763;50.464;30.612;2022-08-01T03:16:30;99871.51;;;19.59;64.69
58979;BME280;44763;50.464;30.612;2022-08-01T03:18:58;99874.35;;;19.77;63.80
58979;BME280;44763;50.464;30.612;2022-08-01T03:21:27;99869.87;;;19.93;62.94
58979;BME280;44763;50.464;30.612;2022-08-01T03:23:56;99872.10;;;20.07;62.26
58979;BME280;44763;50.464;30.612;2022-08-01T03:26:26;99872.47;;;20.26;61.59
58979;BME280;44763;50.464;30.612;2022-08-01T03:29:02;99873.64;;;20.50;60.64
58979;BME280;44763;50.464;30.612;2022-08-01T03:31:37;99868.35;;;20.86;60.01
58979;BME280;44763;50.464;30.612;2022-08-01T03:34:06;99874.09;;;21.31;57.86
58979;BME280;44763;50.464;30.612;2022-08-01T03:36:34;99867.61;;;21.63;57.19
58979;BME280;44763;50.464;30.612;2022-08-01T03:39:06;99871.87;;;21.97;55.32
58979;BME280;44763;50.464;30.612;2022-08-01T03:41:37;99866.87;;;22.38;54.32
58979;BME280;44763;50.464;30.612;2022-08-01T03:44:07;99867.81;;;22.70;52.89
58979;BME280;44763;50.464;30.612;2022-08-01T03:46:47;99854.39;;;22.89;52.02
58979;BME280;44763;50.464;30.612;2022-08-01T03:49:22;99865.37;;;23.16;51.39
58979;BME280;44763;50.464;30.612;2022-08-01T03:51:57;99863.56;;;23.35;50.87
58979;BME280;44763;50.464;30.612;2022-08-01T03:54:28;99856.55;;;23.61;50.04
58979;BME280;44763;50.464;30.612;2022-08-01T03:56:57;99860.98;;;23.83;48.93
58979;BME280;44763;50.464;30.612;2022-08-01T03:59:25;99859.34;;;23.85;48.09
58979;BME280;44763;50.464;30.612;2022-08-01T04:01:54;99862.40;;;23.73;48.04
58979;BME280;44763;50.464;30.612;2022-08-01T04:04:22;99862.48;;;23.65;48.44
58979;BME280;44763;50.464;30.612;2022-08-01T04:06:48;99855.99;;;23.61;48.32
58979;BME280;44763;50.464;30.612;2022-08-01T04:09:16;99857.15;;;23.55;48.40
58979;BME280;44763;50.464;30.612;2022-08-01T04:11:44;99861.02;;;23.49;48.73
58979;BME280;44763;50.464;30.612;2022-08-01T04:14:11;99866.74;;;23.45;48.48
58979;BME280;44763;50.464;30.612;2022-08-01T04:16:37;99863.50;;;23.45;48.80
58979;BME280;44763;50.464;30.612;2022-08-01T04:19:04;99863.43;;;23.50;48.50
58979;BME280;44763;50.464;30.612;2022-08-01T04:21:34;99863.91;;;23.58;48.20
58979;BME280;44763;50.464;30.612;2022-08-01T04:24:13;99856.72;;;23.72;47.48
58979;BME280;44763;50.464;30.612;2022-08-01T04:26:43;99863.70;;;23.83;47.33
58979;BME280;44763;50.464;30.612;2022-08-01T04:29:12;99866.26;;;23.99;47.13
58979;BME280;44763;50.464;30.612;2022-08-01T04:31:43;99862.31;;;24.32;46.08
58979;BME280;44763;50.464;30.612;2022-08-01T04:34:14;99852.14;;;24.64;45.04
58979;BME280;44763;50.464;30.612;2022-08-01T04:36:44;99855.83;;;24.92;44.13
58979;BME280;44763;50.464;30.612;2022-08-01T04:39:12;99851.44;;;25.10;43.77
58979;BME280;44763;50.464;30.612;2022-08-01T04:41:40;99855.17;;;25.33;43.02
58979;BME280;44763;50.464;30.612;2022-08-01T04:44:06;99853.17;;;25.55;42.65
58979;BME280;44763;50.464;30.612;2022-08-01T04:46:34;99851.34;;;25.81;42.29
58979;BME280;44763;50.464;30.612;2022-08-01T04:49:05;99852.80;;;26.06;41.25
58979;BME280;44763;50.464;30.612;2022-08-01T04:51:33;99853.75;;;26.27;40.87
58979;BME280;44763;50.464;30.612;2022-08-01T04:54:56;99856.28;;;26.23;40.37
58979;BME280;44763;50.464;30.612;2022-08-01T04:57:22;99857.89;;;26.10;40.89
58979;BME280;44763;50.464;30.612;2022-08-01T04:59:49;99856.50;;;26.13;40.66
58979;BME280;44763;50.464;30.612;2022-08-01T05:02:18;99852.08;;;26.14;40.58
58979;BME280;44763;50.464;30.612;2022-08-01T05:04:47;99845.82;;;26.28;40.44
58979;BME280;44763;50.464;30.612;2022-08-01T05:07:14;99840.72;;;26.49;39.72
58979;BME280;44763;50.464;30.612;2022-08-01T05:09:42;99838.24;;;26.64;39.46
58979;BME280;44763;50.464;30.612;2022-08-01T05:12:09;99840.99;;;26.75;39.28
58979;BME280;44763;50.464;30.612;2022-08-01T05:14:36;99842.30;;;26.89;39.18
58979;BME280;44763;50.464;30.612;2022-08-01T05:17:05;99842.98;;;27.06;38.37
58979;BME280;44763;50.464;30.612;2022-08-01T05:19:34;99839.88;;;27.21;38.08
58979;BME280;44763;50.464;30.612;2022-08-01T05:22:04;99838.45;;;27.35;37.58
58979;BME280;44763;50.464;30.612;2022-08-01T05:24:32;99833.80;;;27.47;37.26
58979;BME280;44763;50.464;30.612;2022-08-01T05:27:00;99833.13;;;27.61;37.02
58979;BME280;44763;50.464;30.612;2022-08-01T05:29:27;99838.29;;;27.63;37.05
58979;BME280;44763;50.464;30.612;2022-08-01T05:31:54;99831.36;;;27.76;36.57
58979;BME280;44763;50.464;30.612;2022-08-01T05:34:20;99833.53;;;27.77;36.53
58979;BME280;44763;50.464;30.612;2022-08-01T05:36:46;99832.47;;;27.75;36.51
58979;BME280;44763;50.464;30.612;2022-08-01T05:39:13;99828.64;;;27.85;36.36
58979;BME280;44763;50.464;30.612;2022-08-01T05:41:40;99835.44;;;27.88;35.85
58979;BME280;44763;50.464;30.612;2022-08-01T05:44:07;99836.22;;;27.48;35.77
58979;BME280;44763;50.464;30.612;2022-08-01T05:46:35;99831.67;;;26.98;36.92
58979;BME280;44763;50.464;30.612;2022-08-01T05:49:03;99835.94;;;26.68;37.65
58979;BME280;44763;50.464;30.612;2022-08-01T05:51:30;99831.70;;;26.48;38.13
58979;BME280;44763;50.464;30.612;2022-08-01T05:53:57;99839.16;;;26.31;38.48
58979;BME280;44763;50.464;30.612;2022-08-01T05:56:24;99841.16;;;26.53;38.23
58979;BME280;44763;50.464;30.612;2022-08-01T05:58:51;99849.89;;;26.92;37.46
58979;BME280;44763;50.464;30.612;2022-08-01T06:01:19;99845.73;;;27.17;37.16
58979;BME280;44763;50.464;30.612;2022-08-01T06:03:45;99842.33;;;27.34;37.20
58979;BME280;44763;50.464;30.612;2022-08-01T06:06:12;99850.02;;;27.54;36.93
58979;BME280;44763;50.464;30.612;2022-08-01T06:08:40;99838.37;;;27.60;36.58
58979;BME280;44763;50.464;30.612;2022-08-01T06:11:07;99844.76;;;27.35;36.96
58979;BME280;44763;50.464;30.612;2022-08-01T06:13:34;99832.84;;;27.17;37.19
58979;BME280;44763;50.464;30.612;2022-08-01T06:16:00;99831.44;;;27.20;38.01
58979;BME280;44763;50.464;30.612;2022-08-01T06:18:26;99816.39;;;27.43;37.45
58979;BME280;44763;50.464;30.612;2022-08-01T06:20:52;99828.98;;;27.72;36.93
58979;BME280;44763;50.464;30.612;2022-08-01T06:23:20;99820.25;;;27.82;36.80
58979;BME280;44763;50.464;30.612;2022-08-01T06:25:51;99827.62;;;27.72;36.15
58979;BME280;44763;50.464;30.612;2022-08-01T06:28:21;99822.56;;;27.57;37.11
58979;BME280;44763;50.464;30.612;2022-08-01T06:30:48;99819.98;;;27.29;36.89
58979;BME280;44763;50.464;30.612;2022-08-01T06:33:14;99815.83;;;26.87;37.70
58979;BME280;44763;50.464;30.612;2022-08-01T06:35:40;99804.42;;;26.59;38.41
58979;BME280;44763;50.464;30.612;2022-08-01T06:38:06;99808.52;;;26.59;38.73
58979;BME280;44763;50.464;30.612;2022-08-01T06:40:33;99810.28;;;26.89;38.70
58979;BME280;44763;50.464;30.612;2022-08-01T06:42:59;99804.08;;;27.20;37.94
58979;BME280;44763;50.464;30.612;2022-08-01T06:45:25;99788.25;;;27.51;37.37
58979;BME280;44763;50.464;30.612;2022-08-01T06:47:52;99793.78;;;27.68;36.36
58979;BME280;44763;50.464;30.612;2022-08-01T06:50:18;99789.16;;;27.77;36.95
58979;BME280;44763;50.464;30.612;2022-08-01T06:52:45;99793.94;;;28.03;36.34
58979;BME280;44763;50.464;30.612;2022-08-01T06:55:11;99794.59;;;28.18;35.84
58979;BME280;44763;50.464;30.612;2022-08-01T06:57:45;99786.23;;;28.23;35.71
58979;BME280;44763;50.464;30.612;2022-08-01T07:00:16;99780.44;;;28.24;35.38
58979;BME280;44763;50.464;30.612;2022-08-01T07:02:45;99773.92;;;28.31;35.56
58979;BME280;44763;50.464;30.612;2022-08-01T07:05:12;99781.80;;;28.33;35.36
58979;BME280;44763;50.464;30.612;2022-08-01T07:07:39;99780.05;;;28.37;35.49
58979;BME280;44763;50.464;30.612;2022-08-01T07:10:06;99779.24;;;28.45;34.96
58979;BME280;44763;50.464;30.612;2022-08-01T07:12:34;99767.31;;;28.24;35.11
58979;BME280;44763;50.464;30.612;2022-08-01T07:15:05;99792.23;;;27.96;35.35
58979;BME280;44763;50.464;30.612;2022-08-01T07:17:32;99782.30;;;27.89;35.40
58979;BME280;44763;50.464;30.612;2022-08-01T07:19:58;99778.30;;;28.04;35.71
58979;BME280;44763;50.464;30.612;2022-08-01T07:22:24;99766.42;;;28.26;35.60
58979;BME280;44763;50.464;30.612;2022-08-01T07:24:50;99773.85;;;28.43;35.31
58979;BME280;44763;50.464;30.612;2022-08-01T07:27:16;99773.35;;;28.49;35.73
58979;BME280;44763;50.464;30.612;2022-08-01T07:29:42;99777.58;;;28.64;35.18
58979;BME280;44763;50.464;30.612;2022-08-01T07:32:09;99775.55;;;28.76;35.03
58979;BME280;44763;50.464;30.612;2022-08-01T07:34:35;99770.89;;;28.77;34.90
58979;BME280;44763;50.464;30.612;2022-08-01T07:37:01;99781.69;;;28.64;35.03
58979;BME280;44763;50.464;30.612;2022-08-01T07:39:27;99781.74;;;28.35;35.30
58979;BME280;44763;50.464;30.612;2022-08-01T07:41:53;99790.45;;;28.00;35.81
58979;BME280;44763;50.464;30.612;2022-08-01T07:44:20;99774.23;;;27.72;36.31
58979;BME280;44763;50.464;30.612;2022-08-01T07:46:47;99770.69;;;27.52;37.16
58979;BME280;44763;50.464;30.612;2022-08-01T07:49:13;99775.67;;;27.30;37.51
58979;BME280;44763;50.464;30.612;2022-08-01T07:51:40;99784.06;;;27.11;37.90
58979;BME280;44763;50.464;30.612;2022-08-01T07:54:06;99774.70;;;26.92;38.30
58979;BME280;44763;50.464;30.612;2022-08-01T07:56:33;99794.75;;;26.76;38.70
58979;BME280;44763;50.464;30.612;2022-08-01T07:59:01;99781.22;;;26.57;39.17
58979;BME280;44763;50.464;30.612;2022-08-01T08:01:27;99776.11;;;26.41;39.67
58979;BME280;44763;50.464;30.612;2022-08-01T08:03:53;99778.26;;;26.31;40.09
58979;BME280;44763;50.464;30.612;2022-08-01T08:06:19;99768.64;;;26.22;40.34
58979;BME280;44763;50.464;30.612;2022-08-01T08:08:46;99764.51;;;25.97;41.22
58979;BME280;44763;50.464;30.612;2022-08-01T08:11:12;99780.08;;;25.82;41.47
58979;BME280;44763;50.464;30.612;2022-08-01T08:13:38;99771.78;;;25.74;42.19
58979;BME280;44763;50.464;30.612;2022-08-01T08:16:04;99775.28;;;25.77;42.19
58979;BME280;44763;50.464;30.612;2022-08-01T08:18:32;99763.64;;;25.85;42.23
58979;BME280;44763;50.464;30.612;2022-08-01T08:21:00;99711.03;;;25.68;42.06
58979;BME280;44763;50.464;30.612;2022-08-01T08:23:26;99758.22;;;26.10;42.13
58979;BME280;44763;50.464;30.612;2022-08-01T08:26:11;99747.81;;;26.23;42.18
58979;BME280;44763;50.464;30.612;2022-08-01T08:28:38;99758.85;;;26.44;41.89
58979;BME280;44763;50.464;30.612;2022-08-01T08:31:04;99764.25;;;26.60;41.71
58979;BME280;44763;50.464;30.612;2022-08-01T08:33:30;99762.39;;;26.69;41.32
58979;BME280;44763;50.464;30.612;2022-08-01T08:35:56;99755.86;;;26.68;41.37
58979;BME280;44763;50.464;30.612;2022-08-01T08:38:22;99760.34;;;26.64;41.45
58979;BME280;44763;50.464;30.612;2022-08-01T08:40:53;99752.27;;;26.56;41.73
58979;BME280;44763;50.464;30.612;2022-08-01T08:43:20;99756.69;;;26.43;42.01
58979;BME280;44763;50.464;30.612;2022-08-01T08:45:48;99748.47;;;26.32;42.33
58979;BME280;44763;50.464;30.612;2022-08-01T08:48:14;99743.88;;;26.30;42.61
58979;BME280;44763;50.464;30.612;2022-08-01T08:50:43;99759.59;;;26.35;42.59
58979;BME280;44763;50.464;30.612;2022-08-01T08:53:11;99755.86;;;26.42;42.56
58979;BME280;44763;50.464;30.612;2022-08-01T08:55:41;99764.81;;;26.46;42.73
58979;BME280;44763;50.464;30.612;2022-08-01T08:58:13;99755.44;;;26.49;42.80
58979;BME280;44763;50.464;30.612;2022-08-01T09:00:41;99754.70;;;26.57;42.78
58979;BME280;44763;50.464;30.612;2022-08-01T09:03:08;99751.27;;;26.66;42.65
58979;BME280;44763;50.464;30.612;2022-08-01T09:05:35;99760.46;;;26.70;42.72
58979;BME280;44763;50.464;30.612;2022-08-01T09:08:07;99759.33;;;26.71;42.61
58979;BME280;44763;50.464;30.612;2022-08-01T09:10:34;99752.98;;;26.73;42.63
58979;BME280;44763;50.464;30.612;2022-08-01T09:13:09;99766.99;;;26.83;42.63
58979;BME280;44763;50.464;30.612;2022-08-01T09:21:12;99758.83;;;26.91;42.32
58979;BME280;44763;50.464;30.612;2022-08-01T09:23:52;99750.02;;;26.83;42.75
58979;BME280;44763;50.464;30.612;2022-08-01T09:26:34;99753.81;;;26.85;42.49
58979;BME280;44763;50.464;30.612;2022-08-01T09:29:04;99748.04;;;26.86;42.34
58979;BME280;44763;50.464;30.612;2022-08-01T09:31:42;99738.62;;;26.90;42.37
58979;BME280;44763;50.464;30.612;2022-08-01T09:34:10;99748.19;;;27.01;42.41
58979;BME280;44763;50.464;30.612;2022-08-01T09:36:43;99750.86;;;27.15;42.19
58979;BME280;44763;50.464;30.612;2022-08-01T09:39:14;99759.92;;;27.24;41.92
58979;BME280;44763;50.464;30.612;2022-08-01T09:41:41;99744.88;;;27.35;41.75
58979;BME280;44763;50.464;30.612;2022-08-01T09:44:08;99741.80;;;27.48;41.91
58979;BME280;44763;50.464;30.612;2022-08-01T09:46:34;99753.33;;;27.56;42.19
58979;BME280;44763;50.464;30.612;2022-08-01T09:49:04;99760.27;;;27.63;42.10
58979;BME280;44763;50.464;30.612;2022-08-01T09:51:38;99752.09;;;27.71;42.00
58979;BME280;44763;50.464;30.612;2022-08-01T09:54:06;99765.80;;;27.80;41.84
58979;BME280;44763;50.464;30.612;2022-08-01T09:56:38;99741.22;;;27.89;41.78
58979;BME280;44763;50.464;30.612;2022-08-01T09:59:09;99756.13;;;27.94;41.79
58979;BME280;44763;50.464;30.612;2022-08-01T10:01:44;99756.13;;;28.03;41.78
58979;BME280;44763;50.464;30.612;2022-08-01T10:04:15;99761.89;;;28.12;41.57
58979;BME280;44763;50.464;30.612;2022-08-01T10:06:48;99761.49;;;28.17;41.34
58979;BME280;44763;50.464;30.612;2022-08-01T10:09:29;99737.95;;;28.15;41.53
58979;BME280;44763;50.464;30.612;2022-08-01T10:11:58;99751.42;;;28.14;41.84
58979;BME280;44763;50.464;30.612;2022-08-01T10:14:27;99742.06;;;28.15;41.91
58979;BME280;44763;50.464;30.612;2022-08-01T10:16:56;99740.38;;;28.17;42.02
58979;BME280;44763;50.464;30.612;2022-08-01T10:19:25;99753.44;;;28.20;42.19
58979;BME280;44763;50.464;30.612;2022-08-01T10:21:53;99742.72;;;28.12;42.48
58979;BME280;44763;50.464;30.612;2022-08-01T10:24:21;99761.07;;;28.03;42.42
58979;BME280;44763;50.464;30.612;2022-08-01T10:26:55;99740.98;;;27.96;42.53
58979;BME280;44763;50.464;30.612;2022-08-01T10:29:26;99749.03;;;27.93;42.84
58979;BME280;44763;50.464;30.612;2022-08-01T10:31:54;99727.20;;;27.90;42.79
58979;BME280;44763;50.464;30.612;2022-08-01T10:34:20;99748.14;;;27.95;42.82
58979;BME280;44763;50.464;30.612;2022-08-01T10:36:47;99729.80;;;28.04;42.40
58979;BME280;44763;50.464;30.612;2022-08-01T10:39:14;99716.12;;;28.13;42.45
58979;BME280;44763;50.464;30.612;2022-08-01T10:41:40;99726.19;;;28.15;42.45
58979;BME280;44763;50.464;30.612;2022-08-01T10:44:08;99714.34;;;28.17;42.83
58979;BME280;44763;50.464;30.612;2022-08-01T10:46:39;99729.02;;;28.21;42.29
58979;BME280;44763;50.464;30.612;2022-08-01T10:49:14;99726.27;;;28.21;42.21
58979;BME280;44763;50.464;30.612;2022-08-01T10:51:43;99724.51;;;28.17;42.79
58979;BME280;44763;50.464;30.612;2022-08-01T10:54:11;99737.05;;;28.00;43.38
58979;BME280;44763;50.464;30.612;2022-08-01T10:56:44;99749.17;;;27.88;43.54
58979;BME280;44763;50.464;30.612;2022-08-01T10:59:20;99745.69;;;27.85;43.73
58979;BME280;44763;50.464;30.612;2022-08-01T11:02:00;99730.72;;;27.82;43.80
58979;BME280;44763;50.464;30.612;2022-08-01T11:07:51;99760.89;;;27.80;44.06
58979;BME280;44763;50.464;30.612;2022-08-01T11:12:56;99713.95;;;27.55;44.46
58979;BME280;44763;50.464;30.612;2022-08-01T11:15:25;99717.48;;;27.55;44.13
58979;BME280;44763;50.464;30.612;2022-08-01T11:17:53;99744.41;;;27.62;44.61
58979;BME280;44763;50.464;30.612;2022-08-01T11:20:25;99717.61;;;27.62;44.72
58979;BME280;44763;50.464;30.612;2022-08-01T11:28:18;99738.94;;;27.62;45.20
58979;BME280;44763;50.464;30.612;2022-08-01T11:30:47;99743.45;;;27.67;44.78
58979;BME280;44763;50.464;30.612;2022-08-01T11:33:17;99735.06;;;27.63;44.53
58979;BME280;44763;50.464;30.612;2022-08-01T11:41:35;99726.41;;;27.50;45.15
58979;BME280;44763;50.464;30.612;2022-08-01T11:44:10;99742.34;;;27.48;45.36
58979;BME280;44763;50.464;30.612;2022-08-01T11:49:44;99743.31;;;27.52;45.60
58979;BME280;44763;50.464;30.612;2022-08-01T11:52:29;99735.63;;;27.54;45.15
58979;BME280;44763;50.464;30.612;2022-08-01T11:57:34;99724.50;;;27.50;45.21
58979;BME280;44763;50.464;30.612;2022-08-01T12:02:40;99718.37;;;27.53;45.50
58979;BME280;44763;50.464;30.612;2022-08-01T12:05:13;99733.11;;;27.55;45.43
58979;BME280;44763;50.464;30.612;2022-08-01T12:07:39;99735.28;;;27.55;45.83
58979;BME280;44763;50.464;30.612;2022-08-01T12:10:15;99728.66;;;27.48;45.94
58979;BME280;44763;50.464;30.612;2022-08-01T12:12:48;99736.69;;;27.44;45.96
58979;BME280;44763;50.464;30.612;2022-08-01T12:15:24;99724.71;;;27.43;45.71
58979;BME280;44763;50.464;30.612;2022-08-01T12:17:55;99735.14;;;27.41;45.42
58979;BME280;44763;50.464;30.612;2022-08-01T12:20:28;99739.02;;;27.40;45.51
58979;BME280;44763;50.464;30.612;2022-08-01T12:23:01;99728.07;;;27.40;45.59
58979;BME280;44763;50.464;30.612;2022-08-01T12:25:39;99723.66;;;27.41;45.76
58979;BME280;44763;50.464;30.612;2022-08-01T12:28:08;99734.65;;;27.38;46.13
58979;BME280;44763;50.464;30.612;2022-08-01T12:30:36;99737.08;;;27.40;45.80
58979;BME280;44763;50.464;30.612;2022-08-01T12:33:07;99721.89;;;27.45;45.39
58979;BME280;44763;50.464;30.612;2022-08-01T12:35:36;99729.63;;;27.52;44.70
58979;BME280;44763;50.464;30.612;2022-08-01T12:38:13;99735.23;;;27.58;44.16
58979;BME280;44763;50.464;30.612;2022-08-01T12:40:45;99716.95;;;27.65;43.70
58979;BME280;44763;50.464;30.612;2022-08-01T12:43:21;99752.16;;;27.69;44.63
58979;BME280;44763;50.464;30.612;2022-08-01T12:45:51;99738.31;;;27.65;44.70
58979;BME280;44763;50.464;30.612;2022-08-01T12:48:19;99767.25;;;27.57;44.79
58979;BME280;44763;50.464;30.612;2022-08-01T12:50:47;99742.91;;;27.47;44.76
58979;BME280;44763;50.464;30.612;2022-08-01T12:53:15;99746.61;;;27.43;45.29
58979;BME280;44763;50.464;30.612;2022-08-01T12:55:50;99733.23;;;27.41;45.47
58979;BME280;44763;50.464;30.612;2022-08-01T12:58:19;99737.83;;;27.43;45.35
58979;BME280;44763;50.464;30.612;2022-08-01T13:00:51;99725.74;;;27.44;45.24
58979;BME280;44763;50.464;30.612;2022-08-01T13:03:20;99739.11;;;27.46;44.54
58979;BME280;44763;50.464;30.612;2022-08-01T13:05:49;99733.02;;;27.49;44.17
58979;BME280;44763;50.464;30.612;2022-08-01T13:08:26;99733.33;;;27.47;44.21
58979;BME280;44763;50.464;30.612;2022-08-01T13:11:01;99718.84;;;27.47;44.17
58979;BME280;44763;50.464;30.612;2022-08-01T13:13:41;99725.13;;;27.47;44.72
58979;BME280;44763;50.464;30.612;2022-08-01T13:16:10;99709.66;;;27.43;44.77
58979;BME280;44763;50.464;30.612;2022-08-01T13:18:37;99725.56;;;27.41;45.22
58979;BME280;44763;50.464;30.612;2022-08-01T13:21:09;99718.72;;;27.41;45.65
58979;BME280;44763;50.464;30.612;2022-08-01T13:23:42;99705.13;;;27.38;45.79
58979;BME280;44763;50.464;30.612;2022-08-01T13:26:37;99705.87;;;27.41;45.95
58979;BME280;44763;50.464;30.612;2022-08-01T13:29:16;99700.80;;;27.46;45.54
58979;BME280;44763;50.464;30.612;2022-08-01T13:31:46;99715.30;;;27.26;45.60
58979;BME280;44763;50.464;30.612;2022-08-01T13:34:12;99737.77;;;27.23;44.46
58979;BME280;44763;50.464;30.612;2022-08-01T13:36:39;99731.63;;;27.17;43.53
58979;BME280;44763;50.464;30.612;2022-08-01T13:39:06;99711.81;;;27.12;43.16
58979;BME280;44763;50.464;30.612;2022-08-01T13:41:52;99722.57;;;27.08;43.67
58979;BME280;44763;50.464;30.612;2022-08-01T13:44:18;99729.48;;;27.06;44.34